createdAt,value
2022-09-06T00:00:44.119Z,101047.53
2022-09-06T00:03:10.819Z,101055.84
2022-09-06T00:05:37.805Z,101068.53
2022-09-06T00:08:05.868Z,101067.34
2022-09-06T00:10:33.027Z,101069.50
2022-09-06T00:13:05.236Z,101068.50
2022-09-06T00:15:32.543Z,101064.44
2022-09-06T00:18:00.987Z,101057.66
2022-09-06T00:20:29.043Z,101067.16
2022-09-06T00:23:04.624Z,101059.38
2022-09-06T00:25:32.064Z,101070.19
2022-09-06T00:28:00.815Z,101078.09
2022-09-06T00:30:28.700Z,101079.31
2022-09-06T00:32:55.528Z,101081.00
2022-09-06T00:35:24.867Z,101084.38
2022-09-06T00:37:52.587Z,101081.94
2022-09-06T00:40:19.279Z,101101.19
2022-09-06T00:42:45.972Z,101131.66
2022-09-06T00:45:12.781Z,101127.94
2022-09-06T00:47:40.907Z,101118.28
2022-09-06T00:50:08.466Z,101113.22
2022-09-06T00:52:35.471Z,101105.63
2022-09-06T00:55:02.367Z,101104.56
2022-09-06T00:57:30.974Z,101104.44
2022-09-06T00:59:58.316Z,101110.50
2022-09-06T01:02:25.036Z,101119.81
2022-09-06T01:04:52.889Z,101122.16
2022-09-06T01:07:34.565Z,101134.34
2022-09-06T01:10:37.287Z,101149.50
2022-09-06T01:13:19.313Z,101156.56
2022-09-06T01:15:55.454Z,101155.34
2022-09-06T01:18:59.481Z,101163.63
2022-09-06T01:21:35.211Z,101160.53
2022-09-06T01:24:04.777Z,101166.97
2022-09-06T01:26:34.508Z,101159.19
2022-09-06T01:29:01.138Z,101160.19
2022-09-06T01:31:38.967Z,101169.00
2022-09-06T01:34:08.732Z,101167.22
2022-09-06T01:37:08.815Z,101164.16
2022-09-06T01:39:37.005Z,101155.31
2022-09-06T01:42:18.972Z,101154.47
2022-09-06T01:44:53.113Z,101149.25
2022-09-06T01:47:52.846Z,101152.00
2022-09-06T01:51:10.820Z,101164.00
2022-09-06T01:53:51.154Z,101148.28
2022-09-06T01:56:37.535Z,101150.41
2022-09-06T01:59:22.852Z,101144.88
2022-09-06T02:02:16.972Z,101136.81
2022-09-06T02:05:12.584Z,101130.41
2022-09-06T02:07:40.392Z,101120.13
2022-09-06T02:10:25.082Z,101113.47
2022-09-06T02:12:54.053Z,101118.22
2022-09-06T02:15:24.658Z,101124.63
2022-09-06T02:17:58.806Z,101113.72
2022-09-06T02:20:27.477Z,101115.91
2022-09-06T02:22:56.617Z,101110.88
2022-09-06T02:25:37.078Z,101112.34
2022-09-06T02:28:04.020Z,101121.44
2022-09-06T02:30:31.857Z,101124.06
2022-09-06T02:33:01.751Z,101104.06
2022-09-06T02:35:28.558Z,101096.25
2022-09-06T02:37:56.487Z,101099.06
2022-09-06T02:40:23.342Z,101100.91
2022-09-06T02:42:50.003Z,101098.50
2022-09-06T02:45:16.631Z,101097.66
2022-09-06T02:47:43.266Z,101092.47
2022-09-06T02:50:10.038Z,101083.91
2022-09-06T02:52:36.669Z,101079.59
2022-09-06T02:55:03.379Z,101072.56
2022-09-06T02:57:30.016Z,101069.34
2022-09-06T02:59:56.634Z,101070.44
2022-09-06T03:02:23.359Z,101072.81
2022-09-06T03:04:50.072Z,101063.75
2022-09-06T03:07:16.740Z,101065.19
2022-09-06T03:09:43.401Z,101053.91
2022-09-06T03:12:10.040Z,101034.00
2022-09-06T03:14:36.677Z,101016.44
2022-09-06T03:17:04.306Z,101022.69
2022-09-06T03:19:31.021Z,101014.59
2022-09-06T03:21:57.656Z,101022.97
2022-09-06T03:24:24.284Z,101023.69
2022-09-06T03:26:51.978Z,101024.41
2022-09-06T03:29:18.713Z,101037.69
2022-09-06T03:31:45.374Z,101050.44
2022-09-06T03:34:12.020Z,101053.84
2022-09-06T03:36:38.779Z,101049.75
2022-09-06T03:39:06.779Z,101053.66
2022-09-06T03:41:33.453Z,101054.06
2022-09-06T03:44:00.138Z,101050.59
2022-09-06T03:46:30.552Z,101051.47
2022-09-06T03:48:58.084Z,101040.13
2022-09-06T03:51:25.004Z,101041.78
2022-09-06T03:53:51.744Z,101039.88
2022-09-06T03:56:18.371Z,101040.72
2022-09-06T03:58:44.986Z,101041.28
2022-09-06T04:01:12.802Z,101046.28
2022-09-06T04:03:40.057Z,101038.19
2022-09-06T04:06:07.301Z,101032.09
2022-09-06T04:08:36.704Z,101032.13
2022-09-06T04:11:04.319Z,101029.41
2022-09-06T04:13:31.485Z,101032.97
2022-09-06T04:15:58.352Z,101025.31
2022-09-06T04:18:25.096Z,101019.31
2022-09-06T04:20:53.954Z,101027.56
2022-09-06T04:23:20.952Z,101035.91
2022-09-06T04:25:52.778Z,101045.19
2022-09-06T04:28:20.827Z,101041.63
2022-09-06T04:30:55.294Z,101036.69
2022-09-06T04:33:26.021Z,101045.22
2022-09-06T04:35:58.376Z,101048.31
2022-09-06T04:38:26.655Z,101055.97
2022-09-06T04:40:55.592Z,101062.06
2022-09-06T04:43:23.107Z,101055.81
2022-09-06T04:45:50.180Z,101053.88
2022-09-06T04:48:16.956Z,101067.25
2022-09-06T04:50:43.717Z,101064.28
2022-09-06T04:53:11.157Z,101059.59
2022-09-06T04:55:38.237Z,101064.16
2022-09-06T04:58:05.915Z,101064.59
2022-09-06T05:00:34.091Z,101069.41
2022-09-06T05:03:00.732Z,101068.97
2022-09-06T05:05:27.578Z,101066.72
2022-09-06T05:07:55.114Z,101074.09
2022-09-06T05:10:22.834Z,101063.91
2022-09-06T05:12:51.160Z,101065.06
2022-09-06T05:15:18.731Z,101071.03
2022-09-06T05:17:45.348Z,101079.41
2022-09-06T05:20:12.770Z,101074.13
2022-09-06T05:22:40.105Z,101082.66
2022-09-06T05:25:07.857Z,101087.06
2022-09-06T05:27:34.484Z,101084.78
2022-09-06T05:30:01.125Z,101087.34
2022-09-06T05:32:27.738Z,101094.41
2022-09-06T05:34:54.399Z,101084.03
2022-09-06T05:37:21.057Z,101089.03
2022-09-06T05:39:47.761Z,101083.44
2022-09-06T05:42:19.032Z,101089.56
2022-09-06T05:44:46.047Z,101088.00
2022-09-06T05:47:12.672Z,101086.28
2022-09-06T05:49:39.365Z,101093.69
2022-09-06T05:52:06.031Z,101091.00
2022-09-06T05:54:32.690Z,101087.72
2022-09-06T05:56:59.371Z,101088.47
2022-09-06T05:59:26.586Z,101086.19
2022-09-06T06:01:53.893Z,101093.69
2022-09-06T06:04:21.804Z,101097.34
2022-09-06T06:06:49.484Z,101089.81
2022-09-06T06:09:17.356Z,101091.09
2022-09-06T06:11:44.104Z,101093.25
2022-09-06T06:14:10.740Z,101093.66
2022-09-06T06:16:37.598Z,101085.88
2022-09-06T06:19:04.276Z,101085.16
2022-09-06T06:21:32.254Z,101087.41
2022-09-06T06:24:01.175Z,101089.81
2022-09-06T06:26:29.988Z,101084.44
2022-09-06T06:28:58.996Z,101089.53
2022-09-06T06:31:25.737Z,101093.09
2022-09-06T06:33:52.592Z,101084.00
2022-09-06T06:36:21.862Z,101072.50
2022-09-06T06:38:49.774Z,101071.25
2022-09-06T06:41:18.833Z,101075.34
2022-09-06T06:43:45.740Z,101079.41
2022-09-06T06:46:17.588Z,101071.75
2022-09-06T06:48:45.191Z,101074.47
2022-09-06T06:51:17.003Z,101071.75
2022-09-06T06:53:50.152Z,101068.88
2022-09-06T06:56:27.901Z,101065.41
2022-09-06T06:58:57.543Z,101071.63
2022-09-06T07:01:24.945Z,101068.31
2022-09-06T07:03:51.826Z,101066.47
2022-09-06T07:06:19.430Z,101064.38
2022-09-06T07:08:47.685Z,101067.34
2022-09-06T07:11:17.822Z,101059.22
2022-09-06T07:13:45.467Z,101067.41
2022-09-06T07:16:23.543Z,101067.56
2022-09-06T07:18:54.766Z,101064.41
2022-09-06T07:21:42.543Z,101063.47
2022-09-06T07:24:10.243Z,101063.09
2022-09-06T07:26:38.824Z,101059.59
2022-09-06T07:29:06.407Z,101061.28
2022-09-06T07:34:21.001Z,101058.69
2022-09-06T07:36:48.579Z,101063.63
2022-09-06T07:39:15.436Z,101066.56
2022-09-06T07:41:43.151Z,101070.63
2022-09-06T07:44:09.823Z,101073.03
2022-09-06T07:46:36.514Z,101059.78
2022-09-06T07:49:06.722Z,101062.00
2022-09-06T07:51:33.420Z,101059.44
2022-09-06T07:54:28.734Z,101059.66
2022-09-06T07:56:46.693Z,101064.78
2022-09-06T07:59:13.621Z,101071.09
2022-09-06T08:01:40.969Z,101068.97
2022-09-06T08:04:15.684Z,101064.00
2022-09-06T08:09:37.669Z,101069.78
2022-09-06T08:12:07.474Z,101079.25
2022-09-06T08:14:34.632Z,101076.09
2022-09-06T08:17:02.110Z,101074.78
2022-09-06T08:19:28.746Z,101074.81
2022-09-06T08:21:55.843Z,101081.84
2022-09-06T08:24:25.376Z,101077.16
2022-09-06T08:26:52.084Z,101075.81
2022-09-06T08:29:20.080Z,101078.88
2022-09-06T08:31:47.384Z,101079.41
2022-09-06T08:34:15.300Z,101077.91
2022-09-06T08:36:42.541Z,101068.31
2022-09-06T08:39:12.511Z,101072.41
2022-09-06T08:41:42.092Z,101073.09
2022-09-06T08:47:16.523Z,101077.38
2022-09-06T08:49:46.347Z,101070.78
2022-09-06T08:52:45.400Z,101070.47
2022-09-06T08:55:16.396Z,101067.47
2022-09-06T08:57:52.100Z,101071.53
2022-09-06T09:00:19.853Z,101063.25
2022-09-06T09:02:55.318Z,101052.75
2022-09-06T09:05:29.133Z,101061.72
2022-09-06T09:08:08.386Z,101058.72
2022-09-06T09:10:41.756Z,101062.78
2022-09-06T09:13:09.806Z,101052.13
2022-09-06T09:15:40.331Z,101057.25
2022-09-06T09:18:07.353Z,101054.53
2022-09-06T09:20:34.043Z,101040.47
2022-09-06T09:23:01.909Z,101053.88
2022-09-06T09:25:32.301Z,101052.19
2022-09-06T09:27:59.128Z,101047.75
2022-09-06T09:33:22.768Z,101041.31
2022-09-06T09:35:49.818Z,101024.19
2022-09-06T09:38:40.919Z,101035.06
2022-09-06T09:41:07.933Z,101043.53
2022-09-06T09:43:39.947Z,101038.09
2022-09-06T09:46:29.896Z,101032.50
2022-09-06T09:49:00.309Z,101030.41
2022-09-06T09:51:28.160Z,101021.56
2022-09-06T09:54:04.907Z,101018.47
2022-09-06T09:56:38.893Z,101021.34
2022-09-06T09:59:17.284Z,101014.22
2022-09-06T10:01:43.992Z,101010.44
2022-09-06T10:07:18.964Z,101021.91
2022-09-06T10:09:48.208Z,101014.09
2022-09-06T10:12:19.970Z,101003.41
2022-09-06T10:14:49.046Z,101001.44
2022-09-06T10:17:36.534Z,101013.66
2022-09-06T10:20:15.124Z,101010.66
2022-09-06T10:23:02.113Z,101019.94
2022-09-06T10:25:46.311Z,101019.25
2022-09-06T10:28:39.172Z,101024.16
2022-09-06T10:31:14.844Z,101021.13
2022-09-06T10:33:56.997Z,101030.56
2022-09-06T10:36:38.243Z,101034.47
2022-09-06T10:39:27.110Z,101022.44
2022-09-06T10:41:54.585Z,101015.00
2022-09-06T10:44:39.928Z,101019.81
2022-09-06T10:47:14.864Z,101024.59
2022-09-06T10:49:45.465Z,101010.72
2022-09-06T10:52:17.589Z,101002.38
2022-09-06T10:54:47.381Z,101001.28
2022-09-06T11:00:14.528Z,101017.56
2022-09-06T11:05:53.963Z,101019.00
2022-09-06T11:08:57.718Z,101015.38
2022-09-06T11:11:35.698Z,101004.06
2022-09-06T11:14:07.954Z,101011.19
2022-09-06T11:16:40.081Z,100999.25
2022-09-06T11:19:11.327Z,101001.81
2022-09-06T11:21:47.063Z,101003.25
2022-09-06T11:24:29.282Z,101006.69
2022-09-06T11:27:20.963Z,101017.19
2022-09-06T11:29:56.394Z,101007.91
2022-09-06T11:32:48.643Z,101018.41
2022-09-06T11:35:41.640Z,101015.66
2022-09-06T11:38:14.384Z,101017.41
2022-09-06T11:40:43.358Z,101029.34
2022-09-06T11:43:13.580Z,101014.97
2022-09-06T11:45:51.642Z,101011.91
2022-09-06T11:48:24.382Z,101007.09
2022-09-06T11:50:54.074Z,101002.91
2022-09-06T11:53:22.414Z,101011.53
2022-09-06T11:56:01.347Z,101005.84
2022-09-06T11:58:40.282Z,101011.72
2022-09-06T12:01:13.265Z,101002.06
2022-09-06T12:06:33.405Z,101001.19
2022-09-06T12:09:00.354Z,100984.34
2022-09-06T12:11:36.515Z,101001.84
2022-09-06T12:14:29.215Z,100993.63
2022-09-06T12:16:55.792Z,100994.03
2022-09-06T12:19:44.656Z,100983.53
2022-09-06T12:22:38.882Z,100992.13
2022-09-06T12:25:34.544Z,100995.28
2022-09-06T12:28:03.293Z,100988.13
2022-09-06T12:30:44.681Z,101001.31
2022-09-06T12:33:15.060Z,101001.03
2022-09-06T12:35:57.673Z,100995.38
2022-09-06T12:38:25.852Z,100990.59
2022-09-06T12:40:56.555Z,100988.31
2022-09-06T12:43:27.084Z,100979.28
2022-09-06T12:45:53.795Z,100975.31
2022-09-06T12:49:01.347Z,100974.25
2022-09-06T12:51:28.209Z,100965.19
2022-09-06T12:54:20.389Z,100968.13
2022-09-06T12:56:47.028Z,100963.09
2022-09-06T12:59:19.565Z,100951.34
2022-09-06T13:02:12.142Z,100954.06
2022-09-06T13:04:42.637Z,100952.59
2022-09-06T13:07:12.325Z,100956.16
2022-09-06T13:09:42.922Z,100948.38
2022-09-06T13:12:29.710Z,100943.50
2022-09-06T13:14:57.763Z,100938.69
2022-09-06T13:17:29.814Z,100947.31
2022-09-06T13:19:58.265Z,100944.19
2022-09-06T13:22:46.278Z,100935.09
2022-09-06T13:25:17.614Z,100937.63
2022-09-06T13:27:52.704Z,100934.28
2022-09-06T13:30:42.509Z,100945.19
2022-09-06T13:33:24.154Z,100935.75
2022-09-06T13:36:04.274Z,100935.31
2022-09-06T13:38:41.423Z,100938.50
2022-09-06T13:41:27.970Z,100936.56
2022-09-06T13:44:01.806Z,100930.88
2022-09-06T13:46:28.544Z,100926.41
2022-09-06T13:48:58.629Z,100925.34
2022-09-06T13:51:29.817Z,100932.28
2022-09-06T13:54:15.847Z,100921.56
2022-09-06T13:56:44.832Z,100925.75
2022-09-06T13:59:12.158Z,100921.56
2022-09-06T14:01:40.875Z,100916.25
2022-09-06T14:04:07.960Z,100917.72
2022-09-06T14:06:37.093Z,100920.91
2022-09-06T14:09:08.438Z,100913.78
2022-09-06T14:11:36.225Z,100917.19
2022-09-06T14:14:02.989Z,100914.03
2022-09-06T14:16:30.248Z,100903.88
2022-09-06T14:18:57.047Z,100901.75
2022-09-06T14:21:24.108Z,100893.56
2022-09-06T14:23:51.674Z,100906.38
2022-09-06T14:26:19.936Z,100899.41
2022-09-06T14:28:46.867Z,100902.38
2022-09-06T14:31:15.916Z,100908.66
2022-09-06T14:33:43.145Z,100905.03
2022-09-06T14:36:13.086Z,100895.38
2022-09-06T14:38:40.981Z,100901.47
2022-09-06T14:41:08.833Z,100901.69
2022-09-06T14:43:36.441Z,100896.59
2022-09-06T14:46:05.341Z,100907.34
2022-09-06T14:48:32.779Z,100893.66
2022-09-06T14:51:07.779Z,100893.81
2022-09-06T14:53:40.385Z,100897.16
2022-09-06T14:56:08.235Z,100890.38
2022-09-06T14:58:37.587Z,100888.25
2022-09-06T15:01:14.716Z,100891.16
2022-09-06T15:03:43.216Z,100889.78
2022-09-06T15:06:10.848Z,100879.66
2022-09-06T15:08:38.122Z,100885.06
2022-09-06T15:11:08.211Z,100876.66
2022-09-06T15:13:41.617Z,100873.81
2022-09-06T15:16:10.338Z,100873.97
2022-09-06T15:18:37.144Z,100870.84
2022-09-06T15:21:17.943Z,100862.75
2022-09-06T15:23:44.882Z,100858.53
2022-09-06T15:26:13.764Z,100861.88
2022-09-06T15:28:42.233Z,100860.19
2022-09-06T15:31:09.811Z,100853.28
2022-09-06T15:33:37.438Z,100841.97
2022-09-06T15:36:08.004Z,100841.53
2022-09-06T15:38:36.655Z,100837.38
2022-09-06T15:41:08.382Z,100837.28
2022-09-06T15:43:47.030Z,100831.84
2022-09-06T15:46:23.800Z,100827.22
2022-09-06T15:48:53.677Z,100830.25
2022-09-06T15:51:21.496Z,100822.28
2022-09-06T15:53:48.290Z,100829.03
2022-09-06T15:56:16.639Z,100829.69
2022-09-06T15:58:45.811Z,100825.66
2022-09-06T16:01:22.696Z,100826.16
2022-09-06T16:03:55.125Z,100820.75
2022-09-06T16:08:52.683Z,100820.34
2022-09-06T16:11:19.740Z,100820.78
2022-09-06T16:13:46.547Z,100814.69
2022-09-06T16:16:15.255Z,100816.16
2022-09-06T16:18:44.071Z,100806.94
2022-09-06T16:21:13.728Z,100808.47
2022-09-06T16:23:41.939Z,100809.34
2022-09-06T16:26:09.412Z,100805.50
2022-09-06T16:28:37.416Z,100809.06
2022-09-06T16:31:07.309Z,100806.53
2022-09-06T16:33:35.315Z,100805.69
2022-09-06T16:36:03.853Z,100802.78
2022-09-06T16:38:35.166Z,100813.72
2022-09-06T16:41:17.327Z,100806.97
2022-09-06T16:43:45.149Z,100802.59
2022-09-06T16:46:12.914Z,100810.19
2022-09-06T16:48:43.038Z,100801.59
2022-09-06T16:51:17.764Z,100807.06
2022-09-06T16:53:48.424Z,100811.47
2022-09-06T16:56:17.374Z,100805.78
2022-09-06T16:58:49.872Z,100801.75
2022-09-06T17:01:16.685Z,100803.09
2022-09-06T17:03:43.728Z,100798.69
2022-09-06T17:06:10.352Z,100802.69
2022-09-06T17:08:37.106Z,100803.34
2022-09-06T17:11:05.777Z,100806.75
2022-09-06T17:13:33.137Z,100802.53
2022-09-06T17:16:22.102Z,100805.69
2022-09-06T17:18:49.569Z,100805.03
2022-09-06T17:21:16.481Z,100804.63
2022-09-06T17:23:43.650Z,100798.31
2022-09-06T17:26:10.648Z,100806.50
2022-09-06T17:28:38.482Z,100806.50
2022-09-06T17:31:05.859Z,100798.72
2022-09-06T17:33:33.344Z,100800.56
2022-09-06T17:36:08.660Z,100802.88
2022-09-06T17:38:35.406Z,100800.53
2022-09-06T17:41:02.511Z,100800.31
2022-09-06T17:43:29.477Z,100801.13
2022-09-06T17:45:56.333Z,100802.59
2022-09-06T17:48:25.301Z,100795.00
2022-09-06T17:50:53.577Z,100791.47
2022-09-06T17:53:20.268Z,100782.63
2022-09-06T17:55:47.023Z,100788.91
2022-09-06T17:58:13.791Z,100788.72
2022-09-06T18:00:42.353Z,100793.31
2022-09-06T18:03:09.099Z,100784.91
2022-09-06T18:05:43.028Z,100775.22
2022-09-06T18:08:09.765Z,100777.50
2022-09-06T18:10:37.926Z,100787.31
2022-09-06T18:13:05.340Z,100783.34
2022-09-06T18:15:33.128Z,100779.53
2022-09-06T18:17:59.908Z,100775.09
2022-09-06T18:20:29.761Z,100778.00
2022-09-06T18:22:56.482Z,100777.97
2022-09-06T18:25:23.229Z,100775.81
2022-09-06T18:27:49.888Z,100766.78
2022-09-06T18:30:16.772Z,100772.44
2022-09-06T18:32:45.504Z,100768.41
2022-09-06T18:35:12.350Z,100771.91
2022-09-06T18:37:39.018Z,100776.72
2022-09-06T18:40:06.674Z,100767.28
2022-09-06T18:42:33.698Z,100769.59
2022-09-06T18:45:00.460Z,100775.00
2022-09-06T18:47:27.208Z,100775.59
2022-09-06T18:49:54.140Z,100778.28
2022-09-06T18:52:21.093Z,100778.22
2022-09-06T18:54:49.130Z,100775.28
2022-09-06T18:57:17.319Z,100770.84
2022-09-06T18:59:44.731Z,100773.75
2022-09-06T19:02:11.567Z,100786.13
2022-09-06T19:04:38.469Z,100791.09
2022-09-06T19:07:05.174Z,100777.22
2022-09-06T19:09:31.885Z,100777.88
2022-09-06T19:11:58.602Z,100774.25
2022-09-06T19:14:25.413Z,100768.16
2022-09-06T19:16:54.247Z,100767.13
2022-09-06T19:19:22.070Z,100763.34
2022-09-06T19:21:48.745Z,100757.47
2022-09-06T19:24:16.399Z,100755.19
2022-09-06T19:26:44.259Z,100747.00
2022-09-06T19:29:16.007Z,100742.22
2022-09-06T19:31:43.766Z,100736.09
2022-09-06T19:34:12.290Z,100730.13
2022-09-06T19:36:39.526Z,100731.38
2022-09-06T19:39:08.825Z,100736.63
2022-09-06T19:41:43.116Z,100730.78
2022-09-06T19:44:11.132Z,100739.94
2022-09-06T19:46:40.094Z,100736.75
2022-09-06T19:49:08.911Z,100738.19
2022-09-06T19:51:36.931Z,100735.22
2022-09-06T19:54:04.223Z,100730.38
2022-09-06T19:56:33.825Z,100714.84
2022-09-06T19:59:03.418Z,100723.66
2022-09-06T20:01:32.698Z,100719.41
2022-09-06T20:04:00.739Z,100717.06
2022-09-06T20:06:27.488Z,100712.66
2022-09-06T20:08:56.509Z,100717.06
2022-09-06T20:11:25.907Z,100713.44
2022-09-06T20:13:53.036Z,100706.53
2022-09-06T20:16:20.941Z,100704.09
2022-09-06T20:18:48.593Z,100701.63
2022-09-06T20:21:17.989Z,100700.75
2022-09-06T20:23:51.585Z,100695.94
2022-09-06T20:26:19.038Z,100696.09
2022-09-06T20:28:47.367Z,100693.47
2022-09-06T20:31:20.744Z,100696.94
2022-09-06T20:33:49.823Z,100701.72
2022-09-06T20:36:17.488Z,100717.97
2022-09-06T20:38:45.207Z,100735.47
2022-09-06T20:41:20.619Z,100726.78
2022-09-06T20:43:57.721Z,100721.72
2022-09-06T20:46:27.137Z,100722.19
2022-09-06T20:48:59.847Z,100720.78
2022-09-06T20:51:26.602Z,100715.25
2022-09-06T20:53:58.181Z,100714.50
2022-09-06T20:56:29.693Z,100707.84
2022-09-06T20:58:59.599Z,100717.22
2022-09-06T21:01:29.614Z,100714.22
2022-09-06T21:03:58.554Z,100709.81
2022-09-06T21:06:27.296Z,100711.06
2022-09-06T21:08:57.836Z,100708.50
2022-09-06T21:11:24.879Z,100712.53
2022-09-06T21:13:53.515Z,100703.44
2022-09-06T21:16:24.594Z,100707.28
2022-09-06T21:19:02.080Z,100712.63
2022-09-06T21:21:30.680Z,100727.13
2022-09-06T21:23:57.394Z,100722.00
2022-09-06T21:26:24.118Z,100725.09
2022-09-06T21:28:50.851Z,100732.69
2022-09-06T21:31:24.423Z,100736.44
2022-09-06T21:34:03.681Z,100729.78
2022-09-06T21:36:33.074Z,100732.03
2022-09-06T21:39:03.041Z,100719.63
2022-09-06T21:41:30.971Z,100716.56
2022-09-06T21:43:59.726Z,100716.63
2022-09-06T21:46:33.433Z,100721.69
2022-09-06T21:49:05.385Z,100709.13
2022-09-06T21:51:32.717Z,100709.53
2022-09-06T21:54:03.233Z,100702.75
2022-09-06T21:56:30.268Z,100710.72
2022-09-06T21:58:58.339Z,100709.03
2022-09-06T22:01:26.802Z,100707.28
2022-09-06T22:03:53.745Z,100704.66
2022-09-06T22:06:24.888Z,100690.31
2022-09-06T22:08:52.367Z,100687.88
2022-09-06T22:11:24.666Z,100683.13
2022-09-06T22:13:52.143Z,100674.81
2022-09-06T22:16:21.872Z,100670.78
2022-09-06T22:18:49.420Z,100663.97
2022-09-06T22:21:21.238Z,100648.50
2022-09-06T22:23:52.275Z,100642.59
2022-09-06T22:26:19.648Z,100622.56
2022-09-06T22:28:46.993Z,100615.06
2022-09-06T22:31:14.034Z,100615.44
2022-09-06T22:33:40.851Z,100607.00
2022-09-06T22:36:07.734Z,100604.84
2022-09-06T22:38:35.024Z,100605.22
2022-09-06T22:41:01.869Z,100623.47
2022-09-06T22:43:28.524Z,100620.06
2022-09-06T22:46:11.108Z,100612.25
2022-09-06T22:48:37.957Z,100612.34
2022-09-06T22:51:06.201Z,100611.41
2022-09-06T22:53:33.464Z,100613.09
2022-09-06T22:56:01.452Z,100613.75
2022-09-06T22:58:28.311Z,100602.91
2022-09-06T23:00:55.672Z,100585.09
2022-09-06T23:03:22.428Z,100573.97
2022-09-06T23:05:49.389Z,100599.06
2022-09-06T23:08:16.333Z,100611.50
2022-09-06T23:10:44.016Z,100610.56
2022-09-06T23:13:11.356Z,100607.19
2022-09-06T23:15:40.887Z,100600.81
2022-09-06T23:18:08.551Z,100586.31
2022-09-06T23:20:37.146Z,100602.97
2022-09-06T23:23:07.451Z,100626.56
2022-09-06T23:25:38.894Z,100752.16
2022-09-06T23:28:05.958Z,100810.56
2022-09-06T23:30:32.637Z,100780.22
2022-09-06T23:32:59.290Z,100929.34
2022-09-06T23:35:25.944Z,100862.03
2022-09-06T23:37:53.547Z,100868.28
2022-09-06T23:40:20.344Z,100890.00
2022-09-06T23:42:47.523Z,100862.94
2022-09-06T23:45:14.454Z,100869.34
2022-09-06T23:47:41.738Z,100884.81
2022-09-06T23:50:09.133Z,100901.09
2022-09-06T23:52:36.044Z,100902.25
2022-09-06T23:55:03.202Z,100902.28
2022-09-06T23:57:30.160Z,100890.78
2022-09-06T23:59:56.784Z,100898.84
